Time;durP1;ratioP1;P1;durP2;ratioP2;P2;SDS_P1;SDS_P2;PMS_P1;PMS_P2;Temp;Humidity;BMP_temperature;BMP_pressure;BME280_temperature;BME280_humidity;BME280_pressure;Samples;Min_cycle;Max_cycle;Signal;HPM_P1;HPM_P2
2022/03/10 00:00:29;;;;;;;23.75;14.95;;;2.50;73.70;;;;;;4997343;28;20056;-37
2022/03/10 00:02:55;;;;;;;22.40;14.45;;;2.50;73.90;;;;;;5011707;28;20133;-37
2022/03/10 00:05:22;;;;;;;24.33;15.00;;;2.50;73.80;;;;;;5011027;28;20478;-37
2022/03/10 00:07:49;;;;;;;25.48;15.10;;;2.50;74.00;;;;;;5011454;28;20501;-37
2022/03/10 00:10:15;;;;;;;22.40;14.82;;;2.50;74.10;;;;;;5012596;28;20071;-37
2022/03/10 00:12:53;;;;;;;24.88;14.85;;;2.50;74.10;;;;;;5012073;28;20125;-37
2022/03/10 00:15:21;;;;;;;23.75;14.43;;;2.50;74.20;;;;;;5013377;28;20133;-36
2022/03/10 00:17:48;;;;;;;21.80;14.30;;;2.40;74.00;;;;;;5008586;28;20108;-36
2022/03/10 00:20:14;;;;;;;26.98;15.27;;;2.40;73.90;;;;;;5010994;28;20060;-36
2022/03/10 00:22:47;;;;;;;22.13;14.18;;;2.50;73.80;;;;;;5011264;28;20058;-36
2022/03/10 00:25:15;;;;;;;23.75;14.57;;;2.50;73.90;;;;;;5013296;28;20393;-37
2022/03/10 00:27:42;;;;;;;24.40;15.05;;;2.40;73.80;;;;;;5010559;28;20046;-36
2022/03/10 00:30:10;;;;;;;29.75;15.82;;;2.50;74.10;;;;;;5012433;28;20037;-36
2022/03/10 00:32:44;;;;;;;28.98;15.05;;;2.40;74.00;;;;;;5012095;28;20454;-37
2022/03/10 00:35:11;;;;;;;24.48;14.38;;;2.40;74.20;;;;;;5011499;28;20065;-36
2022/03/10 00:37:38;;;;;;;26.60;15.15;;;2.40;74.10;;;;;;5012336;28;20137;-36
2022/03/10 00:40:06;;;;;;;25.67;15.27;;;2.40;74.10;;;;;;5011386;28;20049;-37
2022/03/10 00:42:37;;;;;;;24.70;14.70;;;2.40;74.20;;;;;;5012379;28;20054;-37
2022/03/10 00:45:04;;;;;;;22.45;13.70;;;2.40;74.30;;;;;;5012431;28;20057;-36
2022/03/10 00:47:32;;;;;;;21.58;14.57;;;2.30;74.20;;;;;;5009918;28;20054;-36
2022/03/10 00:49:59;;;;;;;25.95;14.73;;;2.30;74.40;;;;;;5010333;28;20077;-37
2022/03/10 00:52:26;;;;;;;23.38;14.88;;;2.30;74.50;;;;;;5010467;28;20492;-37
2022/03/10 00:54:52;;;;;;;21.38;14.20;;;2.20;74.50;;;;;;5012848;28;20409;-38
2022/03/10 00:57:19;;;;;;;23.13;14.73;;;2.30;74.70;;;;;;5010864;28;20076;-37
2022/03/10 00:59:46;;;;;;;25.55;15.15;;;2.20;74.80;;;;;;5009689;28;20042;-37
2022/03/10 01:02:12;;;;;;;23.80;14.43;;;2.20;75.10;;;;;;5028400;28;20066;-36
2022/03/10 01:04:41;;;;;;;23.30;14.00;;;2.20;75.40;;;;;;5010420;28;20042;-36
2022/03/10 01:07:07;;;;;;;27.75;15.35;;;2.10;75.50;;;;;;5010619;28;20085;-36
2022/03/10 01:09:34;;;;;;;25.00;14.60;;;2.10;75.70;;;;;;5011174;28;20049;-36
2022/03/10 01:12:01;;;;;;;24.08;15.07;;;2.10;75.90;;;;;;5011741;28;20046;-37
2022/03/10 01:14:28;;;;;;;30.08;15.30;;;2.00;76.00;;;;;;5011039;28;20053;-36
2022/03/10 01:16:56;;;;;;;22.63;14.70;;;2.00;76.10;;;;;;5011319;28;20038;-36
2022/03/10 01:19:23;;;;;;;27.90;15.38;;;2.00;76.10;;;;;;5010022;28;20045;-37
2022/03/10 01:21:51;;;;;;;21.80;14.15;;;2.00;76.10;;;;;;5012031;28;20042;-36
2022/03/10 01:24:18;;;;;;;25.40;14.68;;;2.00;76.30;;;;;;5011308;28;20056;-37
2022/03/10 01:26:44;;;;;;;22.65;14.43;;;2.00;76.60;;;;;;5010638;28;20474;-37
2022/03/10 01:29:13;;;;;;;28.25;14.75;;;1.90;76.80;;;;;;5009819;28;20359;-36
2022/03/10 01:31:39;;;;;;;26.70;15.00;;;1.90;76.90;;;;;;5011432;28;20049;-37
2022/03/10 01:34:06;;;;;;;25.40;16.05;;;1.90;77.10;;;;;;5010212;28;20056;-37
2022/03/10 01:36:33;;;;;;;23.80;14.93;;;1.80;77.30;;;;;;5011513;28;20064;-37
2022/03/10 01:39:04;;;;;;;26.13;14.85;;;1.80;77.50;;;;;;5005936;28;20045;-37
2022/03/10 01:41:32;;;;;;;26.20;15.77;;;1.80;77.90;;;;;;5014613;28;20046;-37
2022/03/10 01:43:59;;;;;;;23.90;15.20;;;1.80;77.70;;;;;;5015263;28;20124;-37
2022/03/10 01:46:26;;;;;;;28.23;15.07;;;1.90;77.80;;;;;;5016244;28;20046;-37
2022/03/10 01:48:52;;;;;;;22.48;13.80;;;1.80;77.70;;;;;;5010491;28;20398;-35
2022/03/10 01:51:19;;;;;;;23.42;14.65;;;1.80;77.60;;;;;;5013644;28;20046;-36
2022/03/10 01:53:47;;;;;;;32.17;15.63;;;1.80;77.50;;;;;;5014660;28;20054;-36
2022/03/10 01:56:15;;;;;;;24.33;15.13;;;1.80;77.60;;;;;;5015087;28;20045;-36
2022/03/10 01:58:42;;;;;;;27.98;15.65;;;1.80;78.00;;;;;;5014494;28;20048;-36
2022/03/10 02:01:10;;;;;;;25.90;14.93;;;1.80;77.90;;;;;;5014138;28;20646;-36
2022/03/10 02:03:37;;;;;;;25.73;15.88;;;1.80;78.10;;;;;;5014171;28;20049;-36
2022/03/10 02:06:04;;;;;;;26.33;15.20;;;1.80;78.10;;;;;;5015754;28;20048;-36
2022/03/10 02:11:17;;;;;;;28.27;15.55;;;1.80;78.10;;;;;;5013816;28;20034;-36
2022/03/10 02:13:43;;;;;;;24.63;15.48;;;1.80;78.10;;;;;;5014179;28;20140;-36
2022/03/10 02:18:54;;;;;;;27.75;16.73;;;1.70;78.30;;;;;;5013284;28;20054;-36
2022/03/10 02:21:21;;;;;;;27.80;15.65;;;1.70;78.40;;;;;;5014932;28;20042;-36
2022/03/10 02:23:49;;;;;;;27.25;16.17;;;1.70;79.00;;;;;;5014122;28;20056;-36
2022/03/10 02:26:16;;;;;;;27.13;16.10;;;1.70;78.60;;;;;;5013964;28;20054;-36
2022/03/10 02:28:43;;;;;;;23.73;13.57;;;1.70;78.70;;;;;;5013589;28;20042;-37
2022/03/10 02:31:10;;;;;;;29.92;16.75;;;1.70;78.70;;;;;;5014439;28;20045;-36
2022/03/10 02:33:36;;;;;;;29.30;16.65;;;1.70;78.80;;;;;;5014911;28;20056;-37
2022/03/10 02:36:04;;;;;;;28.90;15.90;;;1.70;78.80;;;;;;5012983;28;20056;-37
2022/03/10 02:38:31;;;;;;;25.73;16.00;;;1.70;78.80;;;;;;5013194;28;20470;-37
2022/03/10 02:40:59;;;;;;;29.98;16.45;;;1.70;79.00;;;;;;5015427;28;20132;-37
2022/03/10 02:43:26;;;;;;;29.33;16.85;;;1.60;78.80;;;;;;5010972;28;20097;-36
2022/03/10 02:45:52;;;;;;;25.90;15.23;;;1.70;78.80;;;;;;5029663;28;20052;-35
2022/03/10 02:48:19;;;;;;;29.17;15.77;;;1.60;78.80;;;;;;5012367;28;20128;-36
2022/03/10 02:50:46;;;;;;;26.23;15.27;;;1.60;78.90;;;;;;5011044;28;20462;-36
2022/03/10 02:53:15;;;;;;;25.38;15.32;;;1.60;79.00;;;;;;5013714;28;20056;-36
2022/03/10 02:55:42;;;;;;;28.15;16.42;;;1.60;79.10;;;;;;5012778;28;20052;-37
2022/03/10 02:58:10;;;;;;;31.17;16.73;;;1.60;79.20;;;;;;5012995;28;20458;-37
2022/03/10 03:00:37;;;;;;;30.98;15.75;;;1.60;79.30;;;;;;5012355;28;20056;-37
2022/03/10 03:03:03;;;;;;;29.45;15.98;;;1.60;79.20;;;;;;5013461;28;20038;-36
2022/03/10 03:05:30;;;;;;;30.63;15.70;;;1.60;79.40;;;;;;5010281;28;20389;-36
2022/03/10 03:07:57;;;;;;;28.98;16.50;;;1.50;79.60;;;;;;5012914;28;20046;-36
2022/03/10 03:10:24;;;;;;;31.25;15.48;;;1.60;79.70;;;;;;5014504;28;20145;-36
2022/03/10 03:12:51;;;;;;;30.58;16.67;;;1.60;79.70;;;;;;5011133;28;20042;-36
2022/03/10 03:15:19;;;;;;;26.00;16.13;;;1.60;80.40;;;;;;5007872;28;20058;-36
2022/03/10 03:17:47;;;;;;;29.05;15.95;;;1.60;80.00;;;;;;5001016;28;20371;-36
2022/03/10 03:20:14;;;;;;;25.00;16.00;;;1.60;79.90;;;;;;5000309;28;20486;-36
2022/03/10 03:22:41;;;;;;;31.48;16.75;;;1.60;80.00;;;;;;5011578;28;20054;-36
2022/03/10 03:25:09;;;;;;;27.73;15.65;;;1.60;80.10;;;;;;4998273;28;20049;-36
2022/03/10 03:27:35;;;;;;;31.13;16.65;;;1.60;80.00;;;;;;4997857;28;20584;-35
2022/03/10 03:30:04;;;;;;;29.42;16.05;;;1.60;80.10;;;;;;4998003;28;20052;-35
2022/03/10 03:32:32;;;;;;;28.20;15.38;;;1.60;79.90;;;;;;4994446;28;20058;-36
2022/03/10 03:34:59;;;;;;;24.77;15.77;;;1.60;80.00;;;;;;5003331;28;20045;-36
2022/03/10 03:37:25;;;;;;;29.05;15.80;;;1.60;79.90;;;;;;4997839;28;20054;-35
2022/03/10 03:39:52;;;;;;;23.02;14.57;;;1.60;79.80;;;;;;4995078;28;20423;-36
2022/03/10 03:42:19;;;;;;;27.38;15.55;;;1.60;79.80;;;;;;4999481;28;20046;-37
2022/03/10 03:44:46;;;;;;;27.45;16.35;;;1.50;79.70;;;;;;5003390;28;20045;-36
2022/03/10 03:47:12;;;;;;;28.25;16.02;;;1.60;79.80;;;;;;4996771;28;20046;-36
2022/03/10 03:49:40;;;;;;;31.05;16.38;;;1.50;79.80;;;;;;5010318;28;20072;-36
2022/03/10 03:52:07;;;;;;;26.98;15.45;;;1.50;79.70;;;;;;5011313;28;20048;-37
2022/03/10 03:54:34;;;;;;;30.77;15.80;;;1.50;79.90;;;;;;5012770;28;20049;-37
2022/03/10 03:57:00;;;;;;;27.88;16.25;;;1.50;79.90;;;;;;5013608;28;20059;-36
2022/03/10 03:59:27;;;;;;;31.50;15.27;;;1.50;79.80;;;;;;5012880;28;20049;-37
2022/03/10 04:01:54;;;;;;;28.67;16.27;;;1.40;79.80;;;;;;5010399;28;20508;-36
2022/03/10 04:04:22;;;;;;;26.08;16.00;;;1.50;79.80;;;;;;5011637;28;20113;-36
2022/03/10 04:06:50;;;;;;;30.63;15.35;;;1.40;79.90;;;;;;5012485;28;20053;-36
2022/03/10 04:09:17;;;;;;;28.30;15.60;;;1.40;80.00;;;;;;5011924;28;20057;-35
2022/03/10 04:11:44;;;;;;;29.65;16.30;;;1.30;80.10;;;;;;5011571;28;20056;-36
2022/03/10 04:14:11;;;;;;;24.92;15.07;;;1.30;80.10;;;;;;5012144;28;20482;-35
2022/03/10 04:16:38;;;;;;;28.33;15.52;;;1.30;80.40;;;;;;5011714;28;20514;-35
2022/03/10 04:19:05;;;;;;;29.70;16.73;;;1.30;80.40;;;;;;5010932;28;20081;-35
2022/03/10 04:21:32;;;;;;;27.08;15.80;;;1.30;80.50;;;;;;5011826;28;20046;-35
2022/03/10 04:24:00;;;;;;;24.10;15.43;;;1.20;80.60;;;;;;5012020;28;20092;-36
2022/03/10 04:26:27;;;;;;;27.38;15.50;;;1.20;80.80;;;;;;5012565;28;20064;-36
2022/03/10 04:28:53;;;;;;;26.25;14.98;;;1.20;81.00;;;;;;5008968;28;20397;-35
2022/03/10 04:31:20;;;;;;;26.70;15.25;;;1.20;81.10;;;;;;5010877;28;20048;-35
2022/03/10 04:33:47;;;;;;;24.73;14.45;;;1.20;81.10;;;;;;5012196;28;20045;-36
2022/03/10 04:36:13;;;;;;;26.33;15.52;;;1.20;80.90;;;;;;5010787;28;20054;-36
2022/03/10 04:38:40;;;;;;;29.85;16.55;;;1.20;81.00;;;;;;5012324;28;20054;-36
2022/03/10 04:41:08;;;;;;;28.02;15.63;;;1.10;80.90;;;;;;5011760;28;20042;-36
2022/03/10 04:43:35;;;;;;;27.48;14.55;;;1.10;81.10;;;;;;5012809;28;20541;-36
2022/03/10 04:46:03;;;;;;;25.55;15.15;;;1.10;81.10;;;;;;5007275;28;20128;-36
2022/03/10 04:48:30;;;;;;;27.30;14.75;;;1.10;81.60;;;;;;5008456;28;20057;-36
2022/03/10 04:50:56;;;;;;;22.67;15.15;;;1.10;81.60;;;;;;5008193;28;20045;-35
2022/03/10 04:53:23;;;;;;;26.52;14.60;;;1.10;81.30;;;;;;5011916;28;20050;-36
2022/03/10 04:55:50;;;;;;;21.27;13.93;;;1.10;81.60;;;;;;5009567;28;20044;-37
2022/03/10 04:58:18;;;;;;;24.63;14.63;;;1.10;81.30;;;;;;5008964;28;20041;-37
2022/03/10 05:00:44;;;;;;;32.42;16.25;;;1.10;81.40;;;;;;5011412;28;20040;-36
2022/03/10 05:03:13;;;;;;;23.45;14.98;;;1.10;82.00;;;;;;5010468;28;20048;-36
2022/03/10 05:05:39;;;;;;;26.65;15.07;;;1.10;81.20;;;;;;5011744;28;20046;-36
2022/03/10 05:08:06;;;;;;;28.75;15.52;;;1.10;81.20;;;;;;5010601;28;20048;-36
2022/03/10 05:10:33;;;;;;;25.15;14.95;;;1.10;81.10;;;;;;5011920;28;20054;-36
2022/03/10 05:13:00;;;;;;;25.88;15.50;;;1.10;81.00;;;;;;4997220;28;20490;-36
2022/03/10 05:15:31;;;;;;;27.15;15.45;;;1.10;81.00;;;;;;5010434;28;20500;-36
2022/03/10 05:17:57;;;;;;;23.13;14.63;;;1.10;81.10;;;;;;5010844;28;20447;-36
2022/03/10 05:20:25;;;;;;;26.30;15.82;;;1.10;81.20;;;;;;5011026;28;20049;-36
2022/03/10 05:22:52;;;;;;;28.27;15.05;;;1.10;81.70;;;;;;5011450;28;20445;-36
2022/03/10 05:25:19;;;;;;;28.60;14.55;;;1.00;81.60;;;;;;5011174;28;20133;-36
2022/03/10 05:27:46;;;;;;;25.35;15.20;;;1.00;81.60;;;;;;5010503;28;20046;-36
2022/03/10 05:30:13;;;;;;;26.50;14.52;;;1.00;81.70;;;;;;5010133;28;20363;-36
2022/03/10 05:32:41;;;;;;;29.92;15.40;;;1.00;82.00;;;;;;5010717;28;20052;-36
2022/03/10 05:35:09;;;;;;;27.95;15.68;;;1.00;81.90;;;;;;5010179;28;20478;-36
2022/03/10 05:37:36;;;;;;;21.77;14.05;;;0.90;82.10;;;;;;5011528;28;20046;-36
2022/03/10 05:40:03;;;;;;;27.10;14.32;;;1.00;82.00;;;;;;5009945;28;20042;-36
2022/03/10 05:42:30;;;;;;;21.40;14.38;;;0.90;82.00;;;;;;5009893;28;20056;-36
2022/03/10 05:44:57;;;;;;;24.17;14.02;;;0.90;81.90;;;;;;5011642;28;20474;-36
2022/03/10 05:47:23;;;;;;;23.98;14.20;;;1.00;82.00;;;;;;5008477;28;20073;-36
2022/03/10 05:49:51;;;;;;;26.88;14.48;;;0.90;82.00;;;;;;5011543;28;20042;-36
2022/03/10 05:52:18;;;;;;;26.20;14.27;;;0.90;82.30;;;;;;5011384;28;20049;-37
2022/03/10 05:54:45;;;;;;;25.48;15.35;;;0.90;82.40;;;;;;5008581;28;20077;-36
2022/03/10 05:57:11;;;;;;;26.23;14.85;;;1.00;82.70;;;;;;5009344;28;20046;-36
2022/03/10 05:59:38;;;;;;;26.15;13.90;;;0.90;82.60;;;;;;5010857;28;20053;-36
2022/03/10 06:02:05;;;;;;;26.27;15.15;;;0.90;82.90;;;;;;5009542;28;20137;-37
2022/03/10 06:04:31;;;;;;;25.02;14.43;;;0.90;83.00;;;;;;5009894;28;20489;-35
2022/03/10 06:07:00;;;;;;;24.08;14.48;;;1.00;82.70;;;;;;5009484;28;20038;-36
2022/03/10 06:09:26;;;;;;;29.77;15.80;;;0.90;82.90;;;;;;5004886;28;20049;-37
2022/03/10 06:11:53;;;;;;;32.53;15.27;;;0.90;83.10;;;;;;5008333;28;20038;-37
2022/03/10 06:14:20;;;;;;;25.92;14.27;;;1.00;83.00;;;;;;5009863;28;20058;-36
2022/03/10 06:16:46;;;;;;;27.63;15.10;;;0.90;83.00;;;;;;5007371;28;20089;-36
2022/03/10 06:19:14;;;;;;;25.92;14.32;;;0.90;83.20;;;;;;5008301;28;20046;-37
2022/03/10 06:21:41;;;;;;;25.63;14.80;;;0.90;83.40;;;;;;5006751;28;20433;-38
2022/03/10 06:24:10;;;;;;;27.58;15.30;;;1.00;83.30;;;;;;5007037;28;20096;-37
2022/03/10 06:26:37;;;;;;;25.67;14.80;;;1.00;83.30;;;;;;5013415;28;20121;-37
2022/03/10 06:29:04;;;;;;;25.25;14.63;;;1.00;83.40;;;;;;5013358;28;20052;-36
2022/03/10 06:31:30;;;;;;;32.00;15.43;;;1.00;83.20;;;;;;5013634;28;20060;-36
2022/03/10 06:33:57;;;;;;;30.75;15.38;;;1.00;83.40;;;;;;5012561;28;20053;-36
2022/03/10 06:36:24;;;;;;;26.63;15.77;;;1.00;83.50;;;;;;5011383;28;20038;-37
2022/03/10 06:38:50;;;;;;;29.10;16.35;;;1.00;83.60;;;;;;5013240;28;20050;-36
2022/03/10 06:41:19;;;;;;;25.10;14.57;;;1.00;83.70;;;;;;5011873;28;20056;-37
2022/03/10 06:43:45;;;;;;;28.25;15.75;;;1.00;84.00;;;;;;5011454;28;20108;-37
2022/03/10 06:46:12;;;;;;;30.67;15.30;;;1.10;84.10;;;;;;5014017;28;20046;-35
2022/03/10 06:48:39;;;;;;;29.70;15.35;;;1.10;84.30;;;;;;5009997;28;20042;-36
2022/03/10 06:51:06;;;;;;;28.05;15.25;;;1.10;84.30;;;;;;5011397;28;20052;-36
2022/03/10 06:53:33;;;;;;;30.75;16.48;;;1.20;84.40;;;;;;5013706;28;20050;-36
2022/03/10 06:56:00;;;;;;;33.78;16.60;;;1.30;84.40;;;;;;5011972;28;20048;-35
2022/03/10 06:58:28;;;;;;;27.05;15.18;;;1.30;84.40;;;;;;5013873;28;20478;-37
2022/03/10 07:00:54;;;;;;;27.05;15.43;;;1.40;84.50;;;;;;5011864;28;20057;-36
2022/03/10 07:03:21;;;;;;;29.73;15.73;;;1.40;84.30;;;;;;5002966;28;20058;-38
2022/03/10 07:05:48;;;;;;;28.80;15.15;;;1.50;84.30;;;;;;4988802;28;20060;-36
2022/03/10 07:08:15;;;;;;;26.10;15.85;;;1.60;84.10;;;;;;5010834;28;20141;-35
2022/03/10 07:10:42;;;;;;;25.13;15.23;;;1.70;84.00;;;;;;5012691;28;20041;-36
2022/03/10 07:13:08;;;;;;;26.20;16.02;;;1.80;83.40;;;;;;5011960;28;20046;-35
2022/03/10 07:15:36;;;;;;;29.77;15.27;;;1.90;83.30;;;;;;5009622;28;20489;-36
2022/03/10 07:18:03;;;;;;;28.75;16.15;;;2.10;83.20;;;;;;4999626;28;20049;-36
2022/03/10 07:20:30;;;;;;;28.35;15.70;;;2.10;83.00;;;;;;5006986;28;20046;-37
2022/03/10 07:22:57;;;;;;;30.83;16.23;;;2.20;83.00;;;;;;5012883;28;20096;-37
2022/03/10 07:25:24;;;;;;;27.95;15.27;;;2.30;82.90;;;;;;5010437;28;20054;-36
2022/03/10 07:27:50;;;;;;;26.38;15.88;;;2.40;82.70;;;;;;5012175;28;20048;-36
2022/03/10 07:30:17;;;;;;;31.52;16.20;;;2.50;82.60;;;;;;4996278;28;20124;-37
2022/03/10 07:32:45;;;;;;;25.90;15.68;;;2.60;82.40;;;;;;5011192;28;20421;-36
2022/03/10 07:35:12;;;;;;;28.58;15.95;;;2.80;82.40;;;;;;5010929;28;20429;-36
2022/03/10 07:37:38;;;;;;;31.10;16.20;;;2.90;82.00;;;;;;5010190;28;20046;-37
2022/03/10 07:40:06;;;;;;;27.13;15.48;;;3.00;81.80;;;;;;5007172;28;20050;-37
2022/03/10 07:42:33;;;;;;;29.70;15.70;;;3.20;81.60;;;;;;5010174;28;20151;-38
2022/03/10 07:44:59;;;;;;;28.75;15.10;;;3.30;81.30;;;;;;5008658;28;20446;-37
2022/03/10 07:47:26;;;;;;;27.73;15.02;;;3.40;81.20;;;;;;5010113;28;20060;-37
2022/03/10 07:49:54;;;;;;;29.38;16.85;;;3.50;81.70;;;;;;5010423;28;20100;-36
2022/03/10 07:52:21;;;;;;;25.42;15.93;;;3.60;80.80;;;;;;5002762;28;20047;-38
2022/03/10 07:54:48;;;;;;;30.63;15.77;;;3.70;80.70;;;;;;5010909;28;20048;-36
2022/03/10 07:57:14;;;;;;;26.75;15.18;;;3.80;80.40;;;;;;5004938;28;20394;-36
2022/03/10 07:59:41;;;;;;;28.23;16.55;;;4.00;80.10;;;;;;5007486;28;20478;-36
2022/03/10 08:02:08;;;;;;;29.65;16.55;;;4.10;79.70;;;;;;5008548;28;20056;-36
2022/03/10 08:04:34;;;;;;;35.85;15.93;;;4.20;79.40;;;;;;5009045;28;20041;-37
2022/03/10 08:07:03;;;;;;;26.08;16.40;;;4.40;79.10;;;;;;5024918;28;20639;-37
2022/03/10 08:09:29;;;;;;;30.75;16.05;;;4.50;78.80;;;;;;5009382;28;20042;-36
2022/03/10 08:11:56;;;;;;;24.77;15.57;;;4.60;78.30;;;;;;5009652;28;20052;-34
2022/03/10 08:14:23;;;;;;;26.83;16.15;;;4.80;78.00;;;;;;5009532;28;20050;-37
2022/03/10 08:16:50;;;;;;;28.88;15.93;;;4.90;77.60;;;;;;5011942;28;20089;-36
2022/03/10 08:19:17;;;;;;;36.85;16.67;;;5.10;77.50;;;;;;5009379;28;20141;-36
2022/03/10 08:21:44;;;;;;;29.63;17.45;;;5.20;77.20;;;;;;5006982;28;20046;-37
2022/03/10 08:24:13;;;;;;;30.85;16.52;;;5.40;76.80;;;;;;5005732;28;20064;-36
2022/03/10 08:26:39;;;;;;;30.23;16.25;;;5.50;76.40;;;;;;5011779;28;20398;-36
2022/03/10 08:29:06;;;;;;;26.73;16.45;;;5.60;76.20;;;;;;5001139;28;20124;-36
2022/03/10 08:31:33;;;;;;;31.10;16.65;;;5.80;75.80;;;;;;5010674;28;20049;-37
2022/03/10 08:34:00;;;;;;;29.60;17.25;;;5.90;75.50;;;;;;5011086;28;20537;-37
2022/03/10 08:36:26;;;;;;;26.55;15.90;;;6.00;74.80;;;;;;5009497;28;20080;-38
2022/03/10 08:38:53;;;;;;;24.23;15.00;;;6.20;74.40;;;;;;5011438;28;20053;-36
2022/03/10 08:41:21;;;;;;;29.85;16.25;;;6.30;74.10;;;;;;5011362;28;20107;-36
2022/03/10 08:43:48;;;;;;;26.60;16.00;;;6.50;73.60;;;;;;5010771;28;20124;-37
2022/03/10 08:46:14;;;;;;;25.33;15.27;;;6.70;73.60;;;;;;5011078;28;20085;-37
2022/03/10 08:48:44;;;;;;;26.33;16.40;;;6.80;72.80;;;;;;5008388;28;20053;-37
2022/03/10 08:51:10;;;;;;;24.98;15.60;;;7.00;72.10;;;;;;5010342;28;20474;-38
2022/03/10 08:53:37;;;;;;;25.88;14.55;;;7.10;71.00;;;;;;5006802;28;20129;-37
2022/03/10 08:56:06;;;;;;;25.38;14.35;;;7.30;70.60;;;;;;5010433;28;20041;-37
2022/03/10 08:58:34;;;;;;;23.20;15.20;;;7.40;69.60;;;;;;5009314;28;20061;-37
2022/03/10 09:01:02;;;;;;;27.13;17.00;;;7.60;69.30;;;;;;5009493;28;20478;-37
2022/03/10 09:03:28;;;;;;;27.38;16.23;;;7.70;68.90;;;;;;5010104;28;20470;-37
2022/03/10 09:05:55;;;;;;;24.25;14.98;;;7.80;68.50;;;;;;5000466;28;20046;-36
2022/03/10 09:08:22;;;;;;;31.52;14.77;;;7.90;67.80;;;;;;5005759;28;20042;-36
2022/03/10 09:10:48;;;;;;;23.98;14.20;;;8.10;67.40;;;;;;5011015;28;20389;-37
2022/03/10 09:13:15;;;;;;;25.85;14.45;;;8.20;66.60;;;;;;5009761;28;20121;-37
2022/03/10 09:15:45;;;;;;;26.48;15.82;;;8.30;65.60;;;;;;5005683;28;20145;-39
2022/03/10 09:18:12;;;;;;;29.67;14.95;;;8.40;65.70;;;;;;5006593;28;20050;-38
2022/03/10 09:20:39;;;;;;;31.23;15.80;;;8.50;65.00;;;;;;5010206;28;20546;-36
2022/03/10 09:23:09;;;;;;;24.67;14.50;;;8.60;64.50;;;;;;5011103;28;20125;-37
2022/03/10 09:25:36;;;;;;;26.42;14.68;;;8.70;65.00;;;;;;5008187;28;20050;-37
2022/03/10 09:28:02;;;;;;;29.50;15.70;;;8.90;64.40;;;;;;5006391;28;20052;-37
2022/03/10 09:30:29;;;;;;;22.33;14.57;;;9.00;64.50;;;;;;5009070;28;20128;-37
2022/03/10 09:33:01;;;;;;;26.90;13.82;;;9.20;63.80;;;;;;5009859;28;20078;-39
2022/03/10 09:35:28;;;;;;;21.27;14.18;;;9.30;63.60;;;;;;5009582;28;20053;-38
2022/03/10 09:37:54;;;;;;;26.27;15.38;;;9.50;63.20;;;;;;5007888;28;20045;-37
2022/03/10 09:40:21;;;;;;;23.20;15.32;;;9.60;63.00;;;;;;5008694;28;20077;-37
2022/03/10 09:42:49;;;;;;;22.20;14.70;;;9.70;62.00;;;;;;5008911;28;20053;-37
2022/03/10 09:45:16;;;;;;;24.23;15.05;;;10.00;61.80;;;;;;5009339;28;20125;-38
2022/03/10 09:47:44;;;;;;;27.15;15.75;;;10.00;60.70;;;;;;5008444;28;20046;-37
2022/03/10 09:50:13;;;;;;;28.55;15.15;;;10.10;61.00;;;;;;5008428;28;20049;-37
2022/03/10 09:52:40;;;;;;;25.85;14.90;;;10.20;60.70;;;;;;5006791;28;20112;-36
2022/03/10 09:55:08;;;;;;;27.65;15.45;;;10.30;60.50;;;;;;5003507;28;20042;-37
2022/03/10 09:57:35;;;;;;;29.58;15.82;;;10.50;59.80;;;;;;5008139;28;20081;-38
2022/03/10 10:00:02;;;;;;;23.73;15.05;;;10.60;59.50;;;;;;5012184;28;20478;-37
2022/03/10 10:02:29;;;;;;;24.90;15.75;;;10.70;58.60;;;;;;5012507;28;20045;-38
2022/03/10 10:04:56;;;;;;;21.52;14.07;;;10.80;58.60;;;;;;5011416;28;20053;-37
2022/03/10 10:07:27;;;;;;;25.50;15.98;;;10.90;58.20;;;;;;5008434;28;20042;-38
2022/03/10 10:09:56;;;;;;;27.25;15.40;;;11.00;58.40;;;;;;5014367;28;20042;-37
2022/03/10 10:12:25;;;;;;;24.90;14.93;;;11.20;58.30;;;;;;5013454;28;20455;-38
2022/03/10 10:14:52;;;;;;;22.33;14.27;;;11.20;56.30;;;;;;5009794;28;20062;-38
2022/03/10 10:17:27;;;;;;;29.60;15.63;;;11.30;57.00;;;;;;5011609;28;20083;-36
2022/03/10 10:19:55;;;;;;;25.65;15.40;;;11.50;56.10;;;;;;5025520;28;20076;-37
2022/03/10 10:22:24;;;;;;;28.83;15.43;;;11.60;54.90;;;;;;5013217;28;20057;-38
2022/03/10 10:24:51;;;;;;;23.65;16.05;;;11.70;54.20;;;;;;5011310;28;20429;-37
2022/03/10 10:27:18;;;;;;;24.27;16.63;;;11.70;53.90;;;;;;5014714;28;20084;-37
2022/03/10 10:29:46;;;;;;;23.25;14.35;;;11.80;53.40;;;;;;5002504;28;20068;-38
2022/03/10 10:32:13;;;;;;;26.25;15.65;;;11.80;53.70;;;;;;5013232;28;20132;-38
2022/03/10 10:34:40;;;;;;;29.10;16.88;;;12.00;54.30;;;;;;5012330;28;20038;-38
2022/03/10 10:37:07;;;;;;;27.75;16.00;;;12.10;54.00;;;;;;5012460;28;20041;-38
2022/03/10 10:39:36;;;;;;;24.42;16.20;;;12.20;53.30;;;;;;5014602;28;20473;-38
2022/03/10 10:42:02;;;;;;;29.13;16.48;;;12.20;53.20;;;;;;5013688;28;20124;-37
2022/03/10 10:44:29;;;;;;;26.40;16.55;;;12.40;53.40;;;;;;5012827;28;20037;-38
2022/03/10 10:46:58;;;;;;;33.72;17.05;;;12.50;53.30;;;;;;5014051;28;20049;-37
2022/03/10 10:49:25;;;;;;;24.98;16.40;;;12.70;52.70;;;;;;5012831;28;20038;-38
2022/03/10 10:51:52;;;;;;;23.67;15.90;;;12.70;52.40;;;;;;5012768;28;20050;-37
2022/03/10 10:54:26;;;;;;;28.08;16.20;;;12.80;53.10;;;;;;5012483;28;20054;-36
2022/03/10 10:56:54;;;;;;;25.60;16.77;;;13.00;52.50;;;;;;5013103;28;20073;-37
2022/03/10 10:59:28;;;;;;;25.52;16.05;;;13.00;51.90;;;;;;5014252;28;20541;-37
2022/03/10 11:02:04;;;;;;;25.50;15.80;;;13.10;51.70;;;;;;5013010;28;20052;-37
2022/03/10 11:04:31;;;;;;;26.50;16.15;;;13.20;51.50;;;;;;5011958;28;20042;-37
2022/03/10 11:06:58;;;;;;;25.73;16.80;;;13.30;51.50;;;;;;5011300;28;20132;-38
2022/03/10 11:09:25;;;;;;;28.52;17.77;;;13.40;52.20;;;;;;5011268;28;20637;-38
2022/03/10 11:11:54;;;;;;;26.30;15.95;;;13.40;51.90;;;;;;5007434;28;20149;-37
2022/03/10 11:14:20;;;;;;;27.40;16.30;;;13.50;52.30;;;;;;5012192;28;20042;-38
2022/03/10 11:16:47;;;;;;;25.40;17.23;;;13.60;52.30;;;;;;5011781;28;20060;-38
2022/03/10 11:19:14;;;;;;;28.00;16.77;;;13.70;51.40;;;;;;5011959;28;20386;-38
2022/03/10 11:21:56;;;;;;;26.77;16.35;;;13.70;51.70;;;;;;5008967;28;20050;-38
2022/03/10 11:25:04;;;;;;;25.45;16.42;;;13.80;50.90;;;;;;5008773;28;20117;-37
2022/03/10 11:27:34;;;;;;;23.42;16.25;;;13.90;50.90;;;;;;5007664;28;21416;-38
2022/03/10 11:30:02;;;;;;;23.95;16.80;;;13.90;51.20;;;;;;5011615;28;20038;-37
2022/03/10 11:32:29;;;;;;;25.08;17.13;;;14.00;50.80;;;;;;5028571;28;20104;-37
2022/03/10 11:34:58;;;;;;;27.48;16.75;;;14.00;50.20;;;;;;5012322;28;20482;-38
2022/03/10 11:37:50;;;;;;;34.03;20.08;;;14.10;50.40;;;;;;5007785;28;20042;-37
2022/03/10 11:40:18;;;;;;;24.30;16.95;;;14.20;48.30;;;;;;5004678;28;20100;-37
2022/03/10 11:42:46;;;;;;;28.60;17.55;;;14.30;49.00;;;;;;5006482;28;20466;-38
2022/03/10 11:45:15;;;;;;;28.20;18.13;;;14.40;48.50;;;;;;5006159;28;20040;-38
2022/03/10 11:47:42;;;;;;;27.98;17.60;;;14.50;48.60;;;;;;5007066;28;20541;-38
2022/03/10 11:50:28;;;;;;;31.20;18.38;;;14.60;48.40;;;;;;5008756;28;20056;-37
2022/03/10 11:52:58;;;;;;;27.42;17.85;;;14.70;47.50;;;;;;5009459;28;20132;-38
2022/03/10 11:55:38;;;;;;;29.38;18.02;;;14.70;48.00;;;;;;5006330;28;20150;-38
2022/03/10 11:58:06;;;;;;;26.73;17.48;;;14.90;47.50;;;;;;5009892;28;20129;-38
2022/03/10 12:00:52;;;;;;;33.13;18.45;;;15.00;47.80;;;;;;5010978;28;20049;-38
2022/03/10 12:03:29;;;;;;;32.03;18.90;;;15.10;44.50;;;;;;5011813;28;20049;-38
2022/03/10 12:05:57;;;;;;;30.73;18.65;;;15.10;46.40;;;;;;5011159;28;20478;-40
2022/03/10 12:08:25;;;;;;;25.75;18.27;;;15.20;46.00;;;;;;5011641;28;20044;-39
2022/03/10 12:10:51;;;;;;;29.58;18.42;;;15.20;45.80;;;;;;5010713;28;20068;-40
2022/03/10 12:13:30;;;;;;;31.70;18.83;;;15.20;45.10;;;;;;5011307;28;20388;-40
2022/03/10 12:15:57;;;;;;;29.33;19.20;;;15.30;45.00;;;;;;5009790;28;20140;-39
2022/03/10 12:18:31;;;;;;;29.90;18.92;;;15.30;44.90;;;;;;5007432;28;20054;-38
2022/03/10 12:20:58;;;;;;;31.48;19.02;;;15.40;44.60;;;;;;5009236;28;20045;-39
2022/03/10 12:23:26;;;;;;;29.17;19.15;;;15.50;45.10;;;;;;5004187;28;20060;-39
2022/03/10 12:25:54;;;;;;;31.52;19.75;;;15.60;44.60;;;;;;5005918;28;20072;-39
2022/03/10 12:28:27;;;;;;;28.48;18.40;;;15.60;44.40;;;;;;5006425;28;20107;-39
2022/03/10 12:31:11;;;;;;;34.08;19.98;;;15.70;44.30;;;;;;5010506;28;20072;-39
2022/03/10 12:33:49;;;;;;;31.00;19.35;;;15.80;44.00;;;;;;5001122;28;20052;-39
2022/03/10 12:36:30;;;;;;;31.15;19.13;;;15.90;42.40;;;;;;5011750;28;20050;-39
2022/03/10 12:38:58;;;;;;;28.67;19.42;;;15.90;43.80;;;;;;5009899;28;20046;-39
2022/03/10 12:41:33;;;;;;;30.70;18.23;;;16.00;43.70;;;;;;5010013;28;20121;-39
2022/03/10 12:44:02;;;;;;;31.52;18.25;;;16.00;43.20;;;;;;5003127;28;20509;-39